sensor_id;sensor_type;location;lat;lon;timestamp;pressure;altitude;pressure_sealevel;temperature;humidity
71907;BME280;59781;52.090;5.030;2023-08-30T00:00:57;100818.66;;;14.13;100.00
71907;BME280;59781;52.090;5.030;2023-08-30T00:03:22;100814.94;;;14.42;100.00
71907;BME280;59781;52.090;5.030;2023-08-30T00:05:48;100814.56;;;14.45;100.00
71907;BME280;59781;52.090;5.030;2023-08-30T00:08:14;100812.19;;;14.63;100.00
71907;BME280;59781;52.090;5.030;2023-08-30T00:10:44;100801.69;;;14.47;100.00
71907;BME280;59781;52.090;5.030;2023-08-30T00:13:15;100812.78;;;14.31;100.00
71907;BME280;59781;52.090;5.030;2023-08-30T00:15:40;100804.38;;;13.98;100.00
71907;BME280;59781;52.090;5.030;2023-08-30T00:18:06;100791.53;;;14.34;100.00
71907;BME280;59781;52.090;5.030;2023-08-30T00:20:32;100795.25;;;14.05;100.00
71907;BME280;59781;52.090;5.030;2023-08-30T00:22:57;100792.94;;;14.02;100.00
71907;BME280;59781;52.090;5.030;2023-08-30T00:25:23;100789.41;;;14.30;100.00
71907;BME280;59781;52.090;5.030;2023-08-30T00:27:49;100792.00;;;14.38;100.00
71907;BME280;59781;52.090;5.030;2023-08-30T00:30:15;100792.19;;;14.64;100.00
71907;BME280;59781;52.090;5.030;2023-08-30T00:32:40;100782.72;;;14.47;100.00
71907;BME280;59781;52.090;5.030;2023-08-30T00:35:06;100786.41;;;14.74;100.00
71907;BME280;59781;52.090;5.030;2023-08-30T00:37:32;100788.84;;;14.62;100.00
71907;BME280;59781;52.090;5.030;2023-08-30T00:39:58;100780.28;;;14.59;100.00
71907;BME280;59781;52.090;5.030;2023-08-30T00:42:25;100788.16;;;14.26;100.00
71907;BME280;59781;52.090;5.030;2023-08-30T00:44:50;100788.09;;;14.19;100.00
71907;BME280;59781;52.090;5.030;2023-08-30T00:47:16;100785.03;;;14.29;100.00
71907;BME280;59781;52.090;5.030;2023-08-30T00:49:42;100777.41;;;14.39;100.00
71907;BME280;59781;52.090;5.030;2023-08-30T00:52:09;100775.78;;;14.17;100.00
71907;BME280;59781;52.090;5.030;2023-08-30T00:54:37;100776.78;;;14.37;100.00
71907;BME280;59781;52.090;5.030;2023-08-30T00:57:04;100765.97;;;14.44;100.00
71907;BME280;59781;52.090;5.030;2023-08-30T00:59:32;100770.25;;;14.31;100.00
71907;BME280;59781;52.090;5.030;2023-08-30T01:01:59;100771.16;;;14.39;100.00
71907;BME280;59781;52.090;5.030;2023-08-30T01:04:27;100766.50;;;14.32;100.00
71907;BME280;59781;52.090;5.030;2023-08-30T01:06:53;100759.00;;;14.28;100.00
71907;BME280;59781;52.090;5.030;2023-08-30T01:09:19;100761.72;;;14.34;100.00
71907;BME280;59781;52.090;5.030;2023-08-30T01:12:08;100762.53;;;14.28;100.00
71907;BME280;59781;52.090;5.030;2023-08-30T01:14:45;100765.28;;;14.35;100.00
71907;BME280;59781;52.090;5.030;2023-08-30T01:17:24;100752.88;;;14.75;100.00
71907;BME280;59781;52.090;5.030;2023-08-30T01:19:58;100756.31;;;14.97;100.00
71907;BME280;59781;52.090;5.030;2023-08-30T01:28:23;100744.50;;;14.42;100.00
71907;BME280;59781;52.090;5.030;2023-08-30T01:30:53;100755.00;;;14.52;100.00
71907;BME280;59781;52.090;5.030;2023-08-30T01:33:20;100760.31;;;14.39;100.00
71907;BME280;59781;52.090;5.030;2023-08-30T01:35:47;100751.22;;;14.18;100.00
71907;BME280;59781;52.090;5.030;2023-08-30T01:38:14;100752.13;;;14.60;100.00
71907;BME280;59781;52.090;5.030;2023-08-30T01:40:44;100750.47;;;14.59;100.00
71907;BME280;59781;52.090;5.030;2023-08-30T01:43:13;100746.09;;;14.30;100.00
71907;BME280;59781;52.090;5.030;2023-08-30T01:45:43;100749.22;;;14.05;100.00
71907;BME280;59781;52.090;5.030;2023-08-30T01:48:13;100737.41;;;14.13;100.00
71907;BME280;59781;52.090;5.030;2023-08-30T01:50:42;100737.53;;;14.26;100.00
71907;BME280;59781;52.090;5.030;2023-08-30T01:53:11;100738.03;;;14.15;100.00
71907;BME280;59781;52.090;5.030;2023-08-30T01:55:40;100732.16;;;14.68;100.00
71907;BME280;59781;52.090;5.030;2023-08-30T01:58:08;100732.47;;;14.92;100.00
71907;BME280;59781;52.090;5.030;2023-08-30T02:00:37;100724.97;;;14.88;100.00
71907;BME280;59781;52.090;5.030;2023-08-30T02:03:10;100722.97;;;14.62;100.00
71907;BME280;59781;52.090;5.030;2023-08-30T02:05:45;100726.75;;;14.40;100.00
71907;BME280;59781;52.090;5.030;2023-08-30T02:08:26;100733.03;;;14.12;100.00
71907;BME280;59781;52.090;5.030;2023-08-30T02:11:04;100723.38;;;14.03;100.00
71907;BME280;59781;52.090;5.030;2023-08-30T02:13:37;100722.13;;;14.33;100.00
71907;BME280;59781;52.090;5.030;2023-08-30T02:16:06;100716.56;;;14.14;100.00
71907;BME280;59781;52.090;5.030;2023-08-30T02:18:35;100714.59;;;14.29;100.00
71907;BME280;59781;52.090;5.030;2023-08-30T02:21:02;100713.97;;;13.99;100.00
71907;BME280;59781;52.090;5.030;2023-08-30T02:23:28;100715.03;;;14.32;100.00
71907;BME280;59781;52.090;5.030;2023-08-30T02:25:54;100719.44;;;14.05;100.00
71907;BME280;59781;52.090;5.030;2023-08-30T02:28:21;100714.50;;;14.16;100.00
71907;BME280;59781;52.090;5.030;2023-08-30T02:30:46;100712.16;;;13.78;100.00
71907;BME280;59781;52.090;5.030;2023-08-30T02:33:12;100712.94;;;14.00;100.00
71907;BME280;59781;52.090;5.030;2023-08-30T02:35:39;100708.09;;;13.95;100.00
71907;BME280;59781;52.090;5.030;2023-08-30T02:38:04;100705.56;;;13.87;100.00
71907;BME280;59781;52.090;5.030;2023-08-30T02:40:31;100700.09;;;13.81;100.00
71907;BME280;59781;52.090;5.030;2023-08-30T02:42:57;100701.69;;;13.75;100.00
71907;BME280;59781;52.090;5.030;2023-08-30T02:45:23;100700.75;;;13.61;100.00
71907;BME280;59781;52.090;5.030;2023-08-30T02:47:48;100710.66;;;13.54;100.00
71907;BME280;59781;52.090;5.030;2023-08-30T02:50:15;100701.25;;;13.71;100.00
71907;BME280;59781;52.090;5.030;2023-08-30T02:52:41;100700.94;;;14.09;100.00
71907;BME280;59781;52.090;5.030;2023-08-30T02:55:07;100691.81;;;13.89;100.00
71907;BME280;59781;52.090;5.030;2023-08-30T02:57:32;100691.25;;;13.72;100.00
71907;BME280;59781;52.090;5.030;2023-08-30T02:59:58;100684.38;;;13.69;100.00
71907;BME280;59781;52.090;5.030;2023-08-30T03:02:24;100672.72;;;13.69;100.00
71907;BME280;59781;52.090;5.030;2023-08-30T03:04:50;100673.84;;;13.81;100.00
71907;BME280;59781;52.090;5.030;2023-08-30T03:07:17;100670.41;;;13.44;100.00
71907;BME280;59781;52.090;5.030;2023-08-30T03:09:42;100659.84;;;13.49;100.00
71907;BME280;59781;52.090;5.030;2023-08-30T03:12:08;100659.06;;;13.56;100.00
71907;BME280;59781;52.090;5.030;2023-08-30T03:14:34;100659.25;;;13.54;100.00
71907;BME280;59781;52.090;5.030;2023-08-30T03:17:00;100658.81;;;13.08;100.00
71907;BME280;59781;52.090;5.030;2023-08-30T03:19:26;100658.41;;;13.11;100.00
71907;BME280;59781;52.090;5.030;2023-08-30T03:21:51;100656.56;;;13.33;100.00
71907;BME280;59781;52.090;5.030;2023-08-30T03:24:17;100647.78;;;13.09;100.00
71907;BME280;59781;52.090;5.030;2023-08-30T03:26:43;100645.31;;;13.29;100.00
71907;BME280;59781;52.090;5.030;2023-08-30T03:29:09;100639.50;;;13.32;100.00
71907;BME280;59781;52.090;5.030;2023-08-30T03:31:35;100637.22;;;13.14;100.00
71907;BME280;59781;52.090;5.030;2023-08-30T03:34:01;100627.34;;;13.71;100.00
71907;BME280;59781;52.090;5.030;2023-08-30T03:36:28;100624.34;;;13.59;100.00
71907;BME280;59781;52.090;5.030;2023-08-30T03:38:54;100620.03;;;13.43;100.00
71907;BME280;59781;52.090;5.030;2023-08-30T03:41:19;100619.31;;;13.28;100.00
71907;BME280;59781;52.090;5.030;2023-08-30T03:43:45;100611.09;;;13.43;100.00
71907;BME280;59781;52.090;5.030;2023-08-30T03:46:11;100607.69;;;13.34;100.00
71907;BME280;59781;52.090;5.030;2023-08-30T03:48:37;100611.28;;;13.41;100.00
71907;BME280;59781;52.090;5.030;2023-08-30T03:51:03;100600.34;;;13.49;100.00
71907;BME280;59781;52.090;5.030;2023-08-30T03:53:29;100608.16;;;13.38;100.00
71907;BME280;59781;52.090;5.030;2023-08-30T03:55:55;100601.13;;;13.22;100.00
71907;BME280;59781;52.090;5.030;2023-08-30T03:58:23;100601.78;;;13.24;100.00
71907;BME280;59781;52.090;5.030;2023-08-30T04:00:49;100600.56;;;13.83;100.00
71907;BME280;59781;52.090;5.030;2023-08-30T04:03:15;100598.50;;;13.57;100.00
71907;BME280;59781;52.090;5.030;2023-08-30T04:05:41;100600.56;;;13.55;100.00
71907;BME280;59781;52.090;5.030;2023-08-30T04:08:08;100595.00;;;13.63;100.00
71907;BME280;59781;52.090;5.030;2023-08-30T04:10:40;100600.22;;;13.36;100.00
71907;BME280;59781;52.090;5.030;2023-08-30T04:13:08;100595.25;;;13.40;100.00
71907;BME280;59781;52.090;5.030;2023-08-30T04:15:37;100588.47;;;13.51;100.00
71907;BME280;59781;52.090;5.030;2023-08-30T04:18:05;100591.72;;;13.39;100.00
71907;BME280;59781;52.090;5.030;2023-08-30T04:20:32;100586.69;;;13.64;100.00
71907;BME280;59781;52.090;5.030;2023-08-30T04:22:59;100589.69;;;13.20;100.00
71907;BME280;59781;52.090;5.030;2023-08-30T04:25:30;100590.56;;;13.27;100.00
71907;BME280;59781;52.090;5.030;2023-08-30T04:27:57;100588.75;;;13.62;100.00
71907;BME280;59781;52.090;5.030;2023-08-30T04:30:23;100577.72;;;13.57;100.00
71907;BME280;59781;52.090;5.030;2023-08-30T04:32:49;100581.75;;;13.40;100.00
71907;BME280;59781;52.090;5.030;2023-08-30T04:35:14;100560.78;;;13.48;100.00
71907;BME280;59781;52.090;5.030;2023-08-30T04:37:41;100571.81;;;13.47;100.00
71907;BME280;59781;52.090;5.030;2023-08-30T04:40:08;100566.41;;;13.26;100.00
71907;BME280;59781;52.090;5.030;2023-08-30T04:42:35;100570.91;;;13.18;100.00
71907;BME280;59781;52.090;5.030;2023-08-30T04:45:02;100566.47;;;13.32;100.00
71907;BME280;59781;52.090;5.030;2023-08-30T04:47:29;100570.41;;;13.30;100.00
71907;BME280;59781;52.090;5.030;2023-08-30T04:49:56;100566.88;;;13.08;100.00
71907;BME280;59781;52.090;5.030;2023-08-30T04:52:22;100552.00;;;12.97;100.00
71907;BME280;59781;52.090;5.030;2023-08-30T04:54:48;100550.50;;;13.16;100.00
71907;BME280;59781;52.090;5.030;2023-08-30T04:57:15;100550.06;;;13.12;100.00
71907;BME280;59781;52.090;5.030;2023-08-30T04:59:45;100552.31;;;13.09;100.00
71907;BME280;59781;52.090;5.030;2023-08-30T05:02:12;100549.03;;;13.13;100.00
71907;BME280;59781;52.090;5.030;2023-08-30T05:04:45;100555.22;;;13.29;100.00
71907;BME280;59781;52.090;5.030;2023-08-30T05:07:11;100546.91;;;13.30;100.00
71907;BME280;59781;52.090;5.030;2023-08-30T05:09:36;100549.06;;;13.41;100.00
71907;BME280;59781;52.090;5.030;2023-08-30T05:12:02;100554.44;;;13.35;100.00
71907;BME280;59781;52.090;5.030;2023-08-30T05:14:29;100550.94;;;13.41;100.00
71907;BME280;59781;52.090;5.030;2023-08-30T05:16:55;100565.03;;;13.15;100.00
71907;BME280;59781;52.090;5.030;2023-08-30T05:19:21;100554.63;;;13.33;100.00
71907;BME280;59781;52.090;5.030;2023-08-30T05:21:48;100550.06;;;13.62;100.00
71907;BME280;59781;52.090;5.030;2023-08-30T05:24:17;100551.09;;;13.33;100.00
71907;BME280;59781;52.090;5.030;2023-08-30T05:26:42;100553.34;;;13.29;100.00
71907;BME280;59781;52.090;5.030;2023-08-30T05:29:08;100556.69;;;13.31;100.00
71907;BME280;59781;52.090;5.030;2023-08-30T05:31:34;100570.44;;;13.15;100.00
71907;BME280;59781;52.090;5.030;2023-08-30T05:34:03;100570.66;;;13.35;100.00
71907;BME280;59781;52.090;5.030;2023-08-30T05:36:47;100569.78;;;13.56;100.00
71907;BME280;59781;52.090;5.030;2023-08-30T05:39:36;100573.72;;;13.53;100.00
71907;BME280;59781;52.090;5.030;2023-08-30T05:42:02;100573.97;;;13.58;100.00
71907;BME280;59781;52.090;5.030;2023-08-30T05:44:28;100572.94;;;13.59;100.00
71907;BME280;59781;52.090;5.030;2023-08-30T05:46:53;100568.06;;;13.48;100.00
71907;BME280;59781;52.090;5.030;2023-08-30T05:49:19;100576.59;;;13.02;100.00
71907;BME280;59781;52.090;5.030;2023-08-30T05:51:45;100575.44;;;13.33;100.00
71907;BME280;59781;52.090;5.030;2023-08-30T05:54:11;100579.16;;;12.89;100.00
71907;BME280;59781;52.090;5.030;2023-08-30T05:56:37;100586.25;;;13.11;100.00
71907;BME280;59781;52.090;5.030;2023-08-30T05:59:03;100582.56;;;12.98;100.00
71907;BME280;59781;52.090;5.030;2023-08-30T06:01:28;100578.69;;;13.07;100.00
71907;BME280;59781;52.090;5.030;2023-08-30T06:03:54;100581.16;;;13.23;100.00
71907;BME280;59781;52.090;5.030;2023-08-30T06:06:20;100577.19;;;13.19;100.00
71907;BME280;59781;52.090;5.030;2023-08-30T06:08:46;100577.50;;;13.09;100.00
71907;BME280;59781;52.090;5.030;2023-08-30T06:11:11;100580.72;;;13.19;100.00
71907;BME280;59781;52.090;5.030;2023-08-30T06:13:38;100579.13;;;12.68;100.00
71907;BME280;59781;52.090;5.030;2023-08-30T06:16:03;100581.16;;;13.02;100.00
71907;BME280;59781;52.090;5.030;2023-08-30T06:18:32;100564.63;;;12.90;100.00
71907;BME280;59781;52.090;5.030;2023-08-30T06:20:58;100570.91;;;12.76;100.00
71907;BME280;59781;52.090;5.030;2023-08-30T06:23:23;100565.50;;;13.18;100.00
71907;BME280;59781;52.090;5.030;2023-08-30T06:25:56;100564.75;;;12.82;100.00
71907;BME280;59781;52.090;5.030;2023-08-30T06:28:23;100567.88;;;13.07;100.00
71907;BME280;59781;52.090;5.030;2023-08-30T06:30:49;100557.88;;;13.22;100.00
71907;BME280;59781;52.090;5.030;2023-08-30T06:33:16;100550.00;;;13.06;100.00
71907;BME280;59781;52.090;5.030;2023-08-30T06:35:42;100550.50;;;13.16;100.00
71907;BME280;59781;52.090;5.030;2023-08-30T06:38:08;100548.94;;;13.07;100.00
71907;BME280;59781;52.090;5.030;2023-08-30T06:40:34;100544.59;;;12.84;100.00
71907;BME280;59781;52.090;5.030;2023-08-30T06:43:00;100538.34;;;13.05;100.00
71907;BME280;59781;52.090;5.030;2023-08-30T06:45:26;100550.78;;;13.00;100.00
71907;BME280;59781;52.090;5.030;2023-08-30T06:47:52;100553.34;;;13.08;100.00
71907;BME280;59781;52.090;5.030;2023-08-30T06:50:18;100547.75;;;13.09;100.00
71907;BME280;59781;52.090;5.030;2023-08-30T06:52:44;100551.16;;;13.39;100.00
71907;BME280;59781;52.090;5.030;2023-08-30T06:55:09;100545.03;;;13.31;100.00
71907;BME280;59781;52.090;5.030;2023-08-30T06:57:35;100546.72;;;13.32;100.00
71907;BME280;59781;52.090;5.030;2023-08-30T07:00:01;100544.56;;;13.48;100.00
71907;BME280;59781;52.090;5.030;2023-08-30T07:02:37;100548.22;;;13.69;100.00
71907;BME280;59781;52.090;5.030;2023-08-30T07:05:03;100530.84;;;13.91;100.00
71907;BME280;59781;52.090;5.030;2023-08-30T07:07:31;100540.34;;;13.74;100.00
71907;BME280;59781;52.090;5.030;2023-08-30T07:09:57;100536.53;;;13.34;100.00
71907;BME280;59781;52.090;5.030;2023-08-30T07:12:22;100529.69;;;13.16;100.00
71907;BME280;59781;52.090;5.030;2023-08-30T07:14:48;100524.19;;;13.53;100.00
71907;BME280;59781;52.090;5.030;2023-08-30T07:17:14;100515.81;;;13.82;100.00
71907;BME280;59781;52.090;5.030;2023-08-30T07:19:40;100512.94;;;13.49;100.00
71907;BME280;59781;52.090;5.030;2023-08-30T07:22:05;100518.56;;;13.54;100.00
71907;BME280;59781;52.090;5.030;2023-08-30T07:24:31;100513.78;;;13.56;100.00
71907;BME280;59781;52.090;5.030;2023-08-30T07:26:57;100500.97;;;13.71;100.00
71907;BME280;59781;52.090;5.030;2023-08-30T07:29:22;100504.88;;;13.62;100.00
71907;BME280;59781;52.090;5.030;2023-08-30T07:31:48;100505.16;;;13.74;100.00
71907;BME280;59781;52.090;5.030;2023-08-30T07:34:16;100505.78;;;13.41;100.00
71907;BME280;59781;52.090;5.030;2023-08-30T07:36:42;100483.72;;;13.38;100.00
71907;BME280;59781;52.090;5.030;2023-08-30T07:39:08;100473.09;;;13.71;100.00
71907;BME280;59781;52.090;5.030;2023-08-30T07:41:33;100476.09;;;13.55;100.00
71907;BME280;59781;52.090;5.030;2023-08-30T07:43:59;100478.06;;;13.33;100.00
71907;BME280;59781;52.090;5.030;2023-08-30T07:46:25;100479.78;;;13.40;100.00
71907;BME280;59781;52.090;5.030;2023-08-30T07:48:51;100478.94;;;13.40;100.00
71907;BME280;59781;52.090;5.030;2023-08-30T07:51:17;100469.63;;;13.49;100.00
71907;BME280;59781;52.090;5.030;2023-08-30T07:53:43;100467.63;;;13.58;100.00
71907;BME280;59781;52.090;5.030;2023-08-30T07:56:08;100467.88;;;13.76;100.00
71907;BME280;59781;52.090;5.030;2023-08-30T07:58:34;100475.25;;;13.47;100.00
71907;BME280;59781;52.090;5.030;2023-08-30T08:01:00;100471.06;;;13.80;100.00
71907;BME280;59781;52.090;5.030;2023-08-30T08:03:25;100478.59;;;13.91;100.00
71907;BME280;59781;52.090;5.030;2023-08-30T08:05:51;100474.25;;;13.55;100.00
71907;BME280;59781;52.090;5.030;2023-08-30T08:08:17;100468.19;;;13.88;100.00
71907;BME280;59781;52.090;5.030;2023-08-30T08:10:43;100477.41;;;14.06;100.00
71907;BME280;59781;52.090;5.030;2023-08-30T08:13:09;100471.56;;;13.96;100.00
71907;BME280;59781;52.090;5.030;2023-08-30T08:15:35;100474.72;;;14.06;100.00
71907;BME280;59781;52.090;5.030;2023-08-30T08:18:02;100464.72;;;14.14;100.00
71907;BME280;59781;52.090;5.030;2023-08-30T08:20:29;100464.06;;;14.05;100.00
71907;BME280;59781;52.090;5.030;2023-08-30T08:22:55;100463.88;;;14.13;100.00
71907;BME280;59781;52.090;5.030;2023-08-30T08:25:21;100461.72;;;13.95;100.00
71907;BME280;59781;52.090;5.030;2023-08-30T08:27:49;100462.88;;;13.73;100.00
71907;BME280;59781;52.090;5.030;2023-08-30T08:30:16;100469.28;;;13.65;100.00
71907;BME280;59781;52.090;5.030;2023-08-30T08:32:42;100472.13;;;13.92;100.00
71907;BME280;59781;52.090;5.030;2023-08-30T08:35:08;100469.47;;;13.98;100.00
71907;BME280;59781;52.090;5.030;2023-08-30T08:37:34;100459.50;;;14.12;100.00
71907;BME280;59781;52.090;5.030;2023-08-30T08:40:00;100462.00;;;14.07;100.00
71907;BME280;59781;52.090;5.030;2023-08-30T08:42:29;100474.06;;;14.04;100.00
71907;BME280;59781;52.090;5.030;2023-08-30T08:44:57;100471.34;;;13.98;100.00
71907;BME280;59781;52.090;5.030;2023-08-30T08:47:24;100465.47;;;13.94;100.00
71907;BME280;59781;52.090;5.030;2023-08-30T08:49:51;100459.47;;;13.99;100.00
71907;BME280;59781;52.090;5.030;2023-08-30T08:52:17;100458.91;;;14.23;100.00
71907;BME280;59781;52.090;5.030;2023-08-30T08:54:43;100452.00;;;14.14;100.00
71907;BME280;59781;52.090;5.030;2023-08-30T08:57:10;100456.75;;;14.05;100.00
71907;BME280;59781;52.090;5.030;2023-08-30T08:59:35;100451.59;;;14.11;100.00
71907;BME280;59781;52.090;5.030;2023-08-30T09:02:02;100453.72;;;14.28;100.00
71907;BME280;59781;52.090;5.030;2023-08-30T09:04:31;100446.63;;;14.27;100.00
71907;BME280;59781;52.090;5.030;2023-08-30T09:06:58;100451.00;;;14.35;100.00
71907;BME280;59781;52.090;5.030;2023-08-30T09:09:26;100454.13;;;14.19;100.00
71907;BME280;59781;52.090;5.030;2023-08-30T09:11:51;100449.44;;;14.67;100.00
71907;BME280;59781;52.090;5.030;2023-08-30T09:14:18;100444.25;;;14.85;100.00
71907;BME280;59781;52.090;5.030;2023-08-30T09:16:58;100450.06;;;15.02;100.00
71907;BME280;59781;52.090;5.030;2023-08-30T09:19:26;100435.84;;;15.27;100.00
71907;BME280;59781;52.090;5.030;2023-08-30T09:21:58;100441.22;;;15.46;100.00
71907;BME280;59781;52.090;5.030;2023-08-30T09:24:25;100444.16;;;15.32;100.00
71907;BME280;59781;52.090;5.030;2023-08-30T09:26:53;100435.75;;;15.53;100.00
71907;BME280;59781;52.090;5.030;2023-08-30T09:29:21;100441.59;;;15.70;100.00
71907;BME280;59781;52.090;5.030;2023-08-30T09:31:52;100428.53;;;15.92;100.00
71907;BME280;59781;52.090;5.030;2023-08-30T09:34:22;100433.81;;;15.80;100.00
71907;BME280;59781;52.090;5.030;2023-08-30T09:36:49;100434.16;;;16.03;100.00
71907;BME280;59781;52.090;5.030;2023-08-30T09:39:15;100435.88;;;16.29;100.00
71907;BME280;59781;52.090;5.030;2023-08-30T09:41:42;100431.97;;;16.50;100.00
71907;BME280;59781;52.090;5.030;2023-08-30T09:44:14;100422.69;;;16.64;100.00
71907;BME280;59781;52.090;5.030;2023-08-30T09:46:42;100412.50;;;17.65;100.00
71907;BME280;59781;52.090;5.030;2023-08-30T09:49:10;100399.44;;;19.22;100.00
71907;BME280;59781;52.090;5.030;2023-08-30T09:51:41;100391.03;;;19.00;100.00
71907;BME280;59781;52.090;5.030;2023-08-30T09:54:15;100397.53;;;19.23;100.00
71907;BME280;59781;52.090;5.030;2023-08-30T09:56:43;100374.63;;;20.32;100.00
71907;BME280;59781;52.090;5.030;2023-08-30T09:59:12;100384.53;;;20.50;100.00
71907;BME280;59781;52.090;5.030;2023-08-30T10:01:43;100383.28;;;21.08;100.00
71907;BME280;59781;52.090;5.030;2023-08-30T10:04:12;100385.88;;;20.81;100.00
71907;BME280;59781;52.090;5.030;2023-08-30T10:06:40;100387.88;;;21.41;100.00
71907;BME280;59781;52.090;5.030;2023-08-30T10:09:07;100383.41;;;21.35;100.00
71907;BME280;59781;52.090;5.030;2023-08-30T10:11:35;100384.16;;;21.53;100.00
71907;BME280;59781;52.090;5.030;2023-08-30T10:14:03;100382.06;;;21.82;100.00
71907;BME280;59781;52.090;5.030;2023-08-30T10:16:45;100388.72;;;21.86;100.00
71907;BME280;59781;52.090;5.030;2023-08-30T10:19:24;100388.44;;;22.36;100.00
71907;BME280;59781;52.090;5.030;2023-08-30T10:22:04;100389.53;;;22.35;100.00
71907;BME280;59781;52.090;5.030;2023-08-30T10:25:01;100398.28;;;22.32;100.00
71907;BME280;59781;52.090;5.030;2023-08-30T10:27:34;100408.00;;;22.77;100.00
71907;BME280;59781;52.090;5.030;2023-08-30T10:30:04;100410.44;;;23.05;100.00
71907;BME280;59781;52.090;5.030;2023-08-30T10:32:32;100411.38;;;21.81;100.00
71907;BME280;59781;52.090;5.030;2023-08-30T10:35:06;100412.06;;;21.11;100.00
71907;BME280;59781;52.090;5.030;2023-08-30T10:37:32;100416.69;;;20.43;100.00
71907;BME280;59781;52.090;5.030;2023-08-30T10:40:01;100409.84;;;20.00;100.00
71907;BME280;59781;52.090;5.030;2023-08-30T10:42:31;100419.22;;;19.53;100.00
71907;BME280;59781;52.090;5.030;2023-08-30T10:44:59;100415.31;;;19.60;100.00
71907;BME280;59781;52.090;5.030;2023-08-30T10:47:31;100426.13;;;19.32;100.00
71907;BME280;59781;52.090;5.030;2023-08-30T10:50:06;100414.94;;;20.37;100.00
71907;BME280;59781;52.090;5.030;2023-08-30T10:52:33;100418.06;;;20.29;100.00
71907;BME280;59781;52.090;5.030;2023-08-30T10:57:44;100431.34;;;18.75;100.00
71907;BME280;59781;52.090;5.030;2023-08-30T11:00:21;100435.34;;;18.30;100.00
71907;BME280;59781;52.090;5.030;2023-08-30T11:02:51;100440.94;;;18.77;100.00
71907;BME280;59781;52.090;5.030;2023-08-30T11:05:20;100437.06;;;19.32;100.00
71907;BME280;59781;52.090;5.030;2023-08-30T11:07:48;100439.44;;;19.40;100.00
71907;BME280;59781;52.090;5.030;2023-08-30T11:10:17;100428.09;;;19.83;100.00
71907;BME280;59781;52.090;5.030;2023-08-30T11:12:45;100444.91;;;19.28;100.00
71907;BME280;59781;52.090;5.030;2023-08-30T11:15:13;100439.31;;;19.35;100.00
71907;BME280;59781;52.090;5.030;2023-08-30T11:17:39;100446.78;;;19.16;100.00
71907;BME280;59781;52.090;5.030;2023-08-30T11:20:07;100433.50;;;18.96;100.00
71907;BME280;59781;52.090;5.030;2023-08-30T11:22:44;100433.22;;;18.74;100.00
71907;BME280;59781;52.090;5.030;2023-08-30T11:25:14;100436.81;;;18.86;100.00
71907;BME280;59781;52.090;5.030;2023-08-30T11:27:41;100436.13;;;18.91;100.00
71907;BME280;59781;52.090;5.030;2023-08-30T11:30:08;100441.19;;;18.87;100.00
71907;BME280;59781;52.090;5.030;2023-08-30T11:32:37;100446.56;;;19.17;100.00
71907;BME280;59781;52.090;5.030;2023-08-30T11:35:05;100452.03;;;19.29;100.00
71907;BME280;59781;52.090;5.030;2023-08-30T11:37:32;100442.97;;;19.64;100.00
71907;BME280;59781;52.090;5.030;2023-08-30T11:39:59;100440.00;;;20.05;100.00
71907;BME280;59781;52.090;5.030;2023-08-30T11:42:27;100444.03;;;21.05;100.00
71907;BME280;59781;52.090;5.030;2023-08-30T11:44:53;100437.41;;;20.11;100.00
71907;BME280;59781;52.090;5.030;2023-08-30T11:47:28;100439.44;;;19.63;100.00
71907;BME280;59781;52.090;5.030;2023-08-30T11:49:55;100439.72;;;19.90;100.00
71907;BME280;59781;52.090;5.030;2023-08-30T11:52:24;100439.44;;;21.11;100.00
71907;BME280;59781;52.090;5.030;2023-08-30T11:54:51;100432.31;;;21.43;99.41
71907;BME280;59781;52.090;5.030;2023-08-30T11:57:19;100428.19;;;21.85;100.00
71907;BME280;59781;52.090;5.030;2023-08-30T11:59:46;100432.59;;;22.61;100.00
71907;BME280;59781;52.090;5.030;2023-08-30T12:02:14;100419.38;;;22.85;94.70
71907;BME280;59781;52.090;5.030;2023-08-30T12:04:42;100428.50;;;23.38;90.27
71907;BME280;59781;52.090;5.030;2023-08-30T12:07:24;100423.28;;;22.95;89.42
71907;BME280;59781;52.090;5.030;2023-08-30T12:09:51;100427.88;;;23.21;94.87
71907;BME280;59781;52.090;5.030;2023-08-30T12:12:17;100438.44;;;21.94;96.03
71907;BME280;59781;52.090;5.030;2023-08-30T12:14:43;100429.03;;;22.34;86.33
71907;BME280;59781;52.090;5.030;2023-08-30T12:17:09;100430.88;;;23.19;89.42
71907;BME280;59781;52.090;5.030;2023-08-30T12:19:37;100427.97;;;23.36;89.97
71907;BME280;59781;52.090;5.030;2023-08-30T12:22:06;100434.25;;;23.74;89.14
71907;BME280;59781;52.090;5.030;2023-08-30T12:24:45;100435.84;;;23.65;85.16
71907;BME280;59781;52.090;5.030;2023-08-30T12:27:13;100437.53;;;23.71;82.85
71907;BME280;59781;52.090;5.030;2023-08-30T12:29:39;100439.50;;;22.96;83.17
71907;BME280;59781;52.090;5.030;2023-08-30T12:32:06;100439.00;;;23.04;87.64
71907;BME280;59781;52.090;5.030;2023-08-30T12:34:33;100439.44;;;23.28;84.32
71907;BME280;59781;52.090;5.030;2023-08-30T12:36:59;100442.72;;;23.62;90.25
71907;BME280;59781;52.090;5.030;2023-08-30T12:39:24;100448.03;;;23.84;81.99
71907;BME280;59781;52.090;5.030;2023-08-30T12:41:50;100455.19;;;21.04;100.00
71907;BME280;59781;52.090;5.030;2023-08-30T12:44:16;100454.00;;;20.49;100.00
71907;BME280;59781;52.090;5.030;2023-08-30T12:46:41;100470.41;;;19.81;100.00
71907;BME280;59781;52.090;5.030;2023-08-30T12:49:07;100478.50;;;19.40;100.00
71907;BME280;59781;52.090;5.030;2023-08-30T12:51:33;100481.34;;;19.45;100.00